Time;durP1;ratioP1;P1;durP2;ratioP2;P2;SDS_P1;SDS_P2;PMS_P1;PMS_P2;Temp;Humidity;BMP_temperature;BMP_pressure;BME280_temperature;BME280_humidity;BME280_pressure;Samples;Min_cycle;Max_cycle;Signal;HPM_P1;HPM_P2
2023/05/31 06:27:41;;;;;;;;;14.67;13.67;;;;;;;;6330981;22;46493;-95
2023/05/31 06:30:09;;;;;;;;;11.67;11.33;;;;;;;;6342059;22;45073;-95
2023/05/31 06:32:35;;;;;;;;;12.33;12.33;;;;;;;;6342582;22;46715;-95
2023/05/31 06:35:01;;;;;;;;;11.33;11.33;;;;;;;;6342999;22;45577;-93
2023/05/31 06:37:27;;;;;;;;;14.00;14.00;;;;;;;;6342623;22;45179;-94
2023/05/31 06:46:22;;;;;;;;;9.67;9.67;;;;;;;;6318607;22;45778;-96
2023/05/31 06:48:48;;;;;;;;;14.00;14.00;;;;;;;;6314144;22;45770;-93
2023/05/31 06:54:40;;;;;;;;;10.33;10.33;;;;;;;;6346780;22;45409;-96
2023/05/31 07:07:53;;;;;;;;;10.33;9.33;;;;;;;;6309417;22;46286;-93
2023/05/31 07:10:19;;;;;;;;;7.00;7.00;;;;;;;;6283137;22;45378;-95
2023/05/31 07:12:48;;;;;;;;;11.00;11.00;;;;;;;;6310489;22;45552;-92
2023/05/31 07:15:13;;;;;;;;;9.33;9.33;;;;;;;;6283230;22;47087;-93
2023/05/31 07:17:41;;;;;;;;;11.67;10.67;;;;;;;;6312889;22;45178;-92
2023/05/31 07:23:09;;;;;;;;;12.00;12.00;;;;;;;;4440254;22;10673003;-93
2023/05/31 07:25:34;;;;;;;;;8.67;8.67;;;;;;;;3770423;22;10658851;-94
2023/05/31 07:27:59;;;;;;;;;6.50;6.50;;;;;;;;3210284;22;27334234;-93
2023/05/31 07:30:30;;;;;;;;;8.50;8.50;;;;;;;;3052061;22;38850789;-95
2023/05/31 07:32:55;;;;;;;;;8.00;8.00;;;;;;;;4964958;22;6235029;-96
2023/05/31 07:35:20;;;;;;;;;9.50;9.50;;;;;;;;5097500;22;9839840;-95
2023/05/31 07:37:45;;;;;;;;;9.67;9.00;;;;;;;;6317760;22;45057;-95
2023/05/31 07:40:11;;;;;;;;;9.33;9.33;;;;;;;;5994864;22;4545702;-94
2023/05/31 07:42:37;;;;;;;;;7.00;7.00;;;;;;;;6309883;22;45675;-95
2023/05/31 07:45:05;;;;;;;;;7.67;7.67;;;;;;;;6053189;22;5339440;-96
2023/05/31 07:47:31;;;;;;;;;9.25;9.25;;;;;;;;4679088;22;25810928;-95
2023/05/31 07:49:56;;;;;;;;;7.00;7.00;;;;;;;;5635268;22;5794892;-96
2023/05/31 07:52:33;;;;;;;;;8.33;8.33;;;;;;;;4942813;22;11686050;-95
2023/05/31 07:54:58;;;;;;;;;10.25;8.75;;;;;;;;5929903;22;4282775;-96
2023/05/31 07:57:23;;;;;;;;;11.67;11.67;;;;;;;;6309522;22;87848;-96
2023/05/31 07:59:50;;;;;;;;;5.00;5.00;;;;;;;;6307539;22;101938;-95
2023/05/31 08:02:15;;;;;;;;;5.40;5.40;;;;;;;;5423270;22;12660190;-95
2023/05/31 08:04:50;;;;;;;;;6.00;6.00;;;;;;;;4906933;22;19719304;-95
2023/05/31 08:08:09;;;;;;;;;;;;;;;;;;2624891;22;36642205;-96
2023/05/31 08:10:44;;;;;;;;;4.00;4.00;;;;;;;;3245079;22;34620449;-96
2023/05/31 08:13:41;;;;;;;;;6.50;6.50;;;;;;;;4134172;22;36784956;-96
2023/05/31 08:16:08;;;;;;;;;5.00;5.00;;;;;;;;6313354;22;45409;-96
2023/05/31 08:18:34;;;;;;;;;8.33;8.33;;;;;;;;6311371;22;45609;-95
2023/05/31 08:20:59;;;;;;;;;8.33;8.33;;;;;;;;5947525;22;4986963;-95
2023/05/31 08:23:24;;;;;;;;;6.50;6.50;;;;;;;;6271965;22;985536;-96
2023/05/31 08:25:51;;;;;;;;;9.00;9.00;;;;;;;;6284419;22;45321;-95
2023/05/31 08:28:29;;;;;;;;;;;;;;;;;;;;;
2023/05/31 08:30:57;;;;;;;;;6.33;6.33;;;;;;;;6311124;22;72978;-96
2023/05/31 08:33:28;;;;;;;;;7.00;7.00;;;;;;;;6285480;22;45207;-96
2023/05/31 08:35:57;;;;;;;;;5.00;5.00;;;;;;;;6312876;22;45698;-96
2023/05/31 08:38:22;;;;;;;;;6.00;6.00;;;;;;;;6311200;22;46092;-96
2023/05/31 08:40:48;;;;;;;;;5.33;5.33;;;;;;;;4533806;22;21995534;-96
2023/05/31 08:43:15;;;;;;;;;6.00;6.00;;;;;;;;5645323;22;8586124;-96
2023/05/31 08:45:43;;;;;;;;;7.00;7.00;;;;;;;;6310474;22;45291;-96
2023/05/31 08:48:13;;;;;;;;;4.33;4.33;;;;;;;;6311749;22;45312;-96
2023/05/31 08:50:44;;;;;;;;;6.33;6.33;;;;;;;;6311770;22;45379;-96
2023/05/31 08:53:15;;;;;;;;;6.00;6.00;;;;;;;;6292084;22;114019;-96
2023/05/31 08:55:42;;;;;;;;;5.00;5.00;;;;;;;;6315543;22;45182;-96
2023/05/31 08:58:10;;;;;;;;;9.00;9.00;;;;;;;;5904154;22;9576559;-96
2023/05/31 09:00:45;;;;;;;;;6.00;4.00;;;;;;;;5373568;22;8975127;-96
2023/05/31 09:03:13;;;;;;;;;6.00;6.00;;;;;;;;5775456;22;8500399;-96
2023/05/31 09:05:56;;;;;;;;;7.00;7.00;;;;;;;;6312552;22;45295;-96
2023/05/31 09:08:29;;;;;;;;;8.00;8.00;;;;;;;;6312374;22;45325;-96
2023/05/31 09:10:57;;;;;;;;;6.33;6.33;;;;;;;;6312137;22;45227;-96
2023/05/31 09:13:25;;;;;;;;;7.00;7.00;;;;;;;;5819914;22;9545111;-96
2023/05/31 09:15:53;;;;;;;;;7.00;6.00;;;;;;;;2792021;22;26708951;-96
2023/05/31 09:18:25;;;;;;;;;9.00;9.00;;;;;;;;3914214;22;24798323;-96
2023/05/31 09:20:55;;;;;;;;;5.00;5.00;;;;;;;;5572341;22;7378191;-96
2023/05/31 09:23:23;;;;;;;;;6.33;6.33;;;;;;;;6313401;22;45242;-96
2023/05/31 09:25:49;;;;;;;;;6.20;6.20;;;;;;;;5585626;22;5661889;-96
2023/05/31 09:28:21;;;;;;;;;4.50;4.50;;;;;;;;5503039;22;7302244;-96
2023/05/31 09:31:11;;;;;;;;;5.67;5.67;;;;;;;;6160472;22;2757829;-96
2023/05/31 09:33:54;;;;;;;;;;;;;;;;;;5230927;22;32650036;-96
2023/05/31 09:36:34;;;;;;;;;7.00;7.00;;;;;;;;1514596;22;34811274;-96
2023/05/31 09:39:10;;;;;;;;;7.50;7.50;;;;;;;;4715664;22;13447200;-96
2023/05/31 09:41:37;;;;;;;;;2.00;2.00;;;;;;;;2981557;22;25555239;-96
2023/05/31 09:44:07;;;;;;;;;6.67;6.67;;;;;;;;3634546;22;42505893;-96
2023/05/31 09:46:34;;;;;;;;;7.50;7.50;;;;;;;;3616453;22;21282185;-96
2023/05/31 09:49:04;;;;;;;;;2.00;2.00;;;;;;;;3719385;22;22672944;-96
2023/05/31 09:51:45;;;;;;;;;8.50;8.50;;;;;;;;5346263;22;7981847;-96
2023/05/31 09:54:17;;;;;;;;;4.00;4.00;;;;;;;;4711212;22;11235055;-95
2023/05/31 09:56:45;;;;;;;;;5.67;4.67;;;;;;;;6115018;22;1699081;-96
2023/05/31 09:59:12;;;;;;;;;5.50;5.50;;;;;;;;5552254;22;6811286;-96
2023/05/31 10:01:55;;;;;;;;;;;;;;;;;;;;;
2023/05/31 10:04:29;;;;;;;;;4.00;4.00;;;;;;;;6342737;22;74241;-96
2023/05/31 10:07:40;;;;;;;;;8.50;8.50;;;;;;;;2894696;22;18457439;-96
2023/05/31 10:14:03;;;;;;;;;;;;;;;;;;;;;
2023/05/31 10:16:31;;;;;;;;;3.50;3.50;;;;;;;;5371817;22;10354834;-96
2023/05/31 10:19:26;;;;;;;;;;;;;;;;;;;;;
2023/05/31 10:22:08;;;;;;;;;5.00;5.00;;;;;;;;3579303;22;18017457;-96
2023/05/31 10:24:36;;;;;;;;;;;;;;;;;;2608381;22;66977378;-96
2023/05/31 10:27:11;;;;;;;;;5.50;5.50;;;;;;;;3442661;22;21645616;-96
2023/05/31 10:32:58;;;;;;;;;;;;;;;;;;2238886;22;48189310;-90
2023/05/31 10:35:24;;;;;;;;;7.00;7.00;;;;;;;;4917616;22;20367406;-92
2023/05/31 10:38:06;;;;;;;;;5.00;5.00;;;;;;;;4481930;22;23419308;-90
2023/05/31 10:40:58;;;;;;;;;6.50;6.50;;;;;;;;2874449;22;28107417;-90
2023/05/31 10:43:39;;;;;;;;;14.50;3.50;;;;;;;;1593719;22;37874441;-90
2023/05/31 10:46:16;;;;;;;;;3.00;3.00;;;;;;;;1645881;22;22994556;-90
2023/05/31 10:48:52;;;;;;;;;10.00;10.00;;;;;;;;3812540;22;18374118;-91
2023/05/31 10:51:52;;;;;;;;;12.00;12.00;;;;;;;;1306934;22;46874268;-88
2023/05/31 10:54:19;;;;;;;;;7.00;7.00;;;;;;;;5911896;22;8282398;-89
2023/05/31 10:56:51;;;;;;;;;6.67;6.67;;;;;;;;6111242;22;3093662;-89
2023/05/31 10:59:17;;;;;;;;;7.00;6.00;;;;;;;;5239246;22;12657089;-90
2023/05/31 11:01:42;;;;;;;;;2.50;2.50;;;;;;;;4243019;22;16779391;-89
2023/05/31 11:04:18;;;;;;;;;4.25;4.25;;;;;;;;4518554;22;10662337;-89
2023/05/31 11:06:43;;;;;;;;;6.00;6.00;;;;;;;;3690095;22;31554749;-89
2023/05/31 11:09:10;;;;;;;;;4.33;4.33;;;;;;;;5933826;22;5848904;-90
2023/05/31 11:11:41;;;;;;;;;4.00;4.00;;;;;;;;6279600;22;45076;-89
2023/05/31 11:19:58;;;;;;;;;4.67;4.67;;;;;;;;6221786;22;508123;-92
2023/05/31 11:28:49;;;;;;;;;4.00;4.00;;;;;;;;5856699;23;3758667;-94
2023/05/31 11:31:17;;;;;;;;;4.00;4.00;;;;;;;;6293509;22;45385;-94
2023/05/31 11:33:46;;;;;;;;;4.00;4.00;;;;;;;;5602662;22;4820521;-93
2023/05/31 11:36:14;;;;;;;;;4.00;4.00;;;;;;;;5240212;22;20685706;-94
2023/05/31 11:38:46;;;;;;;;;3.00;3.00;;;;;;;;5631299;22;4519420;-94
2023/05/31 11:41:13;;;;;;;;;3.00;3.00;;;;;;;;5962636;22;7535306;-93
2023/05/31 11:43:45;;;;;;;;;2.00;2.00;;;;;;;;3517792;22;20441116;-94
2023/05/31 11:46:11;;;;;;;;;;;;;;;;;;2130781;22;30326098;-93
2023/05/31 11:48:46;;;;;;;;;8.00;3.75;;;;;;;;2772729;22;47014011;-94
2023/05/31 11:51:27;;;;;;;;;3.50;3.50;;;;;;;;4190622;22;18612883;-93
2023/05/31 11:54:14;;;;;;;;;4.00;4.00;;;;;;;;3251229;22;18837919;-94
2023/05/31 11:56:42;;;;;;;;;4.00;4.00;;;;;;;;4713464;22;9818230;-95
2023/05/31 11:59:08;;;;;;;;;3.67;3.67;;;;;;;;5504906;22;12031953;-94
2023/05/31 12:01:39;;;;;;;;;4.00;4.00;;;;;;;;3315410;22;30829099;-93
2023/05/31 12:15:51;;;;;;;;;;;;;;;;;;3688028;22;39122010;-91
2023/05/31 12:18:22;;;;;;;;;2.50;2.50;;;;;;;;2698566;22;19595858;-92
2023/05/31 12:21:03;;;;;;;;;3.67;3.67;;;;;;;;4889956;22;13364409;-96
2023/05/31 12:23:58;;;;;;;;;;;;;;;;;;;;;
2023/05/31 12:26:35;;;;;;;;;4.67;4.67;;;;;;;;5512278;22;8025020;-94
2023/05/31 12:29:01;;;;;;;;;3.67;3.33;;;;;;;;6057482;22;6184867;-93
2023/05/31 12:31:31;;;;;;;;;4.00;4.00;;;;;;;;6188854;22;1865485;-95
2023/05/31 12:34:05;;;;;;;;;2.67;2.67;;;;;;;;6263302;22;1575444;-94
2023/05/31 12:36:58;;;;;;;;;2.00;2.00;;;;;;;;5511611;22;7028150;-93
2023/05/31 12:39:34;;;;;;;;;3.50;3.50;;;;;;;;5954304;22;15707061;-92
2023/05/31 12:42:00;;;;;;;;;4.00;4.00;;;;;;;;2726412;22;33872257;-93
2023/05/31 12:44:26;;;;;;;;;3.75;3.75;;;;;;;;5930299;22;5074693;-95
2023/05/31 12:47:19;;;;;;;;;5.50;5.50;;;;;;;;4860660;22;12040450;-96
2023/05/31 12:49:44;;;;;;;;;4.00;4.00;;;;;;;;5603755;22;10561313;-94
2023/05/31 12:52:10;;;;;;;;;3.00;3.00;;;;;;;;4955649;22;22393430;-94
2023/05/31 12:57:26;;;;;;;;;4.00;4.00;;;;;;;;1779007;22;26594365;-96
2023/05/31 13:00:12;;;;;;;;;;;;;;;;;;1436301;22;49620816;-94
2023/05/31 13:02:37;;;;;;;;;4.00;4.00;;;;;;;;4012118;22;21750753;-95
2023/05/31 13:05:06;;;;;;;;;5.00;5.00;;;;;;;;1237858;22;39938541;-96
2023/05/31 13:07:38;;;;;;;;;5.00;5.00;;;;;;;;4469826;22;21181397;-96
2023/05/31 13:10:03;;;;;;;;;4.00;3.00;;;;;;;;6285654;22;45372;-96
2023/05/31 13:12:31;;;;;;;;;2.50;2.50;;;;;;;;2568439;22;52380697;-93
2023/05/31 13:15:58;;;;;;;;;;;;;;;;;;1477539;22;53739257;-91
2023/05/31 13:18:24;;;;;;;;;5.50;5.50;;;;;;;;1817580;22;31312108;-93
2023/05/31 13:20:50;;;;;;;;;5.00;5.00;;;;;;;;3240015;22;20541108;-92
2023/05/31 13:23:35;;;;;;;;;3.50;3.50;;;;;;;;2242739;22;64575345;-93
2023/05/31 13:26:00;;;;;;;;;3.00;3.00;;;;;;;;3181678;22;31142465;-92
2023/05/31 13:28:38;;;;;;;;;;;;;;;;;;1513172;22;52811242;-93
2023/05/31 13:31:10;;;;;;;;;5.00;5.00;;;;;;;;1717985;22;43390551;-93
2023/05/31 13:34:04;;;;;;;;;4.50;4.50;;;;;;;;2312675;22;51891304;-93
2023/05/31 13:36:30;;;;;;;;;4.00;4.00;;;;;;;;5467021;22;7452179;-93
2023/05/31 13:38:55;;;;;;;;;5.67;5.67;;;;;;;;6250410;22;45334;-92
2023/05/31 13:41:21;;;;;;;;;3.00;3.00;;;;;;;;6279861;22;45237;-92
2023/05/31 13:43:47;;;;;;;;;4.67;4.67;;;;;;;;6278438;22;45656;-93
2023/05/31 13:46:12;;;;;;;;;4.67;4.33;;;;;;;;6228534;22;592761;-93
2023/05/31 13:48:38;;;;;;;;;3.00;3.00;;;;;;;;5386816;22;7041481;-93
2023/05/31 13:51:04;;;;;;;;;4.33;4.33;;;;;;;;4584722;22;39122676;-95
2023/05/31 13:53:29;;;;;;;;;4.00;4.00;;;;;;;;4582612;22;13149190;-91
2023/05/31 13:55:55;;;;;;;;;7.00;6.33;;;;;;;;6280251;22;45596;-90
2023/05/31 13:58:29;;;;;;;;;4.00;4.00;;;;;;;;6052206;22;13935986;-95
2023/05/31 14:00:54;;;;;;;;;4.00;4.00;;;;;;;;3526923;22;29765477;-96
2023/05/31 14:03:20;;;;;;;;;4.00;4.00;;;;;;;;4874353;22;17318766;-95
2023/05/31 14:05:46;;;;;;;;;4.33;4.33;;;;;;;;5003863;22;22254605;-92
2023/05/31 14:08:12;;;;;;;;;4.33;3.33;;;;;;;;4348425;22;29394467;-96
2023/05/31 14:11:30;;;;;;;;;;;;;;;;;;3563590;22;76585578;-92
2023/05/31 14:13:55;;;;;;;;;4.00;4.00;;;;;;;;3085076;22;32381455;-92
2023/05/31 14:16:20;;;;;;;;;4.00;4.00;;;;;;;;6298049;22;45236;-92
2023/05/31 14:18:45;;;;;;;;;4.67;4.67;;;;;;;;6298085;22;45258;-92
2023/05/31 14:21:11;;;;;;;;;6.67;4.67;;;;;;;;6279501;22;384972;-93
2023/05/31 14:23:36;;;;;;;;;3.00;3.00;;;;;;;;3846357;22;16681402;-91
2023/05/31 14:26:01;;;;;;;;;4.00;4.00;;;;;;;;2329651;22;51590076;-92
2023/05/31 14:28:42;;;;;;;;;4.00;4.00;;;;;;;;3475308;22;17841741;-92
2023/05/31 14:31:09;;;;;;;;;5.00;5.00;;;;;;;;4958851;22;8799862;-92
2023/05/31 14:33:38;;;;;;;;;5.00;5.00;;;;;;;;6278829;22;45212;-91
2023/05/31 14:36:37;;;;;;;;;5.00;5.00;;;;;;;;6280851;22;45204;-94
2023/05/31 14:39:03;;;;;;;;;5.00;5.00;;;;;;;;6204423;22;45282;-92
2023/05/31 14:41:29;;;;;;;;;5.00;4.00;;;;;;;;6280665;22;45400;-93
2023/05/31 14:44:32;;;;;;;;;3.33;3.33;;;;;;;;6279841;22;45313;-95
2023/05/31 14:47:32;;;;;;;;;4.00;4.00;;;;;;;;6269591;22;246541;-95
2023/05/31 14:56:20;;;;;;;;;7.00;7.00;;;;;;;;5646560;23;10642502;-96
2023/05/31 14:58:45;;;;;;;;;8.25;7.00;;;;;;;;3296728;23;20790045;-96
2023/05/31 15:01:11;;;;;;;;;2.00;2.00;;;;;;;;4940807;22;10249619;-96
2023/05/31 15:03:40;;;;;;;;;4.33;4.33;;;;;;;;6284765;22;45136;-96
2023/05/31 15:08:51;;;;;;;;;6.00;6.00;;;;;;;;3906502;22;24631924;-96
2023/05/31 15:11:17;;;;;;;;;3.33;3.33;;;;;;;;3630806;22;17352801;-95
2023/05/31 15:13:42;;;;;;;;;5.00;5.00;;;;;;;;6279965;22;45354;-95
2023/05/31 15:16:07;;;;;;;;;3.50;3.50;;;;;;;;6242046;22;249600;-95
2023/05/31 15:18:32;;;;;;;;;6.33;6.00;;;;;;;;5993824;22;3057331;-95
2023/05/31 15:20:57;;;;;;;;;5.67;5.67;;;;;;;;6251807;22;45405;-96
2023/05/31 15:23:23;;;;;;;;;3.00;3.00;;;;;;;;6251065;22;45650;-95
2023/05/31 15:25:48;;;;;;;;;4.33;4.33;;;;;;;;5977564;22;4548990;-96
2023/05/31 15:28:15;;;;;;;;;5.40;5.40;;;;;;;;5820470;22;5017954;-95
2023/05/31 15:30:40;;;;;;;;;4.00;4.00;;;;;;;;5292643;22;5464921;-95
2023/05/31 15:33:05;;;;;;;;;5.00;5.00;;;;;;;;5152857;22;14259163;-95
2023/05/31 15:35:33;;;;;;;;;5.00;5.00;;;;;;;;6210069;22;1683688;-96
2023/05/31 15:37:58;;;;;;;;;3.67;3.67;;;;;;;;6281294;22;45267;-96
2023/05/31 15:40:24;;;;;;;;;6.33;5.00;;;;;;;;5359591;22;9077179;-96
2023/05/31 15:42:58;;;;;;;;;2.50;2.50;;;;;;;;5536282;22;24831473;-95
2023/05/31 15:45:24;;;;;;;;;3.50;3.50;;;;;;;;2831249;22;20295208;-96
2023/05/31 15:47:50;;;;;;;;;4.00;4.00;;;;;;;;4224921;22;27372289;-96
2023/05/31 15:50:18;;;;;;;;;1.00;1.00;;;;;;;;2740418;22;35294766;-96
2023/05/31 15:52:44;;;;;;;;;3.67;3.67;;;;;;;;3862887;22;14640030;-95
2023/05/31 15:55:09;;;;;;;;;2.75;2.75;;;;;;;;5505364;22;5936517;-96
2023/05/31 15:57:34;;;;;;;;;3.40;3.40;;;;;;;;3753400;22;9519609;-96
2023/05/31 15:59:59;;;;;;;;;4.00;4.00;;;;;;;;5462525;22;8420761;-94
2023/05/31 16:02:25;;;;;;;;;5.00;5.00;;;;;;;;4531308;22;7570820;-94
2023/05/31 16:04:50;;;;;;;;;8.00;6.67;;;;;;;;5527753;22;15079858;-96
2023/05/31 16:07:15;;;;;;;;;6.50;5.50;;;;;;;;4433227;22;9200020;-95
2023/05/31 16:09:40;;;;;;;;;4.50;4.50;;;;;;;;2636272;22;32688979;-95
2023/05/31 16:12:06;;;;;;;;;9.50;9.50;;;;;;;;3558284;22;12800007;-95
2023/05/31 16:14:31;;;;;;;;;5.25;5.25;;;;;;;;4978086;22;11471442;-95
2023/05/31 16:16:57;;;;;;;;;9.67;8.33;;;;;;;;6281170;22;45215;-95
2023/05/31 16:19:22;;;;;;;;;5.00;5.00;;;;;;;;6280437;22;45153;-95
2023/05/31 16:21:47;;;;;;;;;5.25;5.25;;;;;;;;4565960;22;29120965;-96
2023/05/31 16:24:14;;;;;;;;;5.33;4.33;;;;;;;;4415675;22;24820126;-95
2023/05/31 16:26:39;;;;;;;;;9.00;8.50;;;;;;;;6271719;22;265102;-95
2023/05/31 16:29:04;;;;;;;;;7.00;7.00;;;;;;;;6241920;22;933866;-95
2023/05/31 16:31:29;;;;;;;;;8.33;8.33;;;;;;;;6279671;22;45271;-95
2023/05/31 16:33:55;;;;;;;;;4.00;4.00;;;;;;;;6281013;22;46009;-95
2023/05/31 16:36:21;;;;;;;;;9.00;6.25;;;;;;;;6225020;22;695355;-96
2023/05/31 16:38:46;;;;;;;;;7.00;7.00;;;;;;;;6280094;22;45270;-96
2023/05/31 16:41:11;;;;;;;;;7.33;7.33;;;;;;;;6281341;22;45313;-95
2023/05/31 16:43:36;;;;;;;;;5.33;4.67;;;;;;;;6214339;22;928640;-96
2023/05/31 16:46:02;;;;;;;;;9.33;8.00;;;;;;;;6161223;22;1064937;-94
2023/05/31 16:48:27;;;;;;;;;9.67;7.00;;;;;;;;6281497;22;45165;-94
2023/05/31 16:50:53;;;;;;;;;7.67;7.67;;;;;;;;6281570;22;45534;-95
2023/05/31 16:53:20;;;;;;;;;8.00;8.00;;;;;;;;6252990;22;47587;-95
2023/05/31 16:55:45;;;;;;;;;6.33;6.33;;;;;;;;6281238;22;45239;-95
2023/05/31 16:58:10;;;;;;;;;7.00;7.00;;;;;;;;6252624;22;45129;-95
2023/05/31 17:00:36;;;;;;;;;8.00;7.33;;;;;;;;6281389;22;45483;-94
2023/05/31 17:03:01;;;;;;;;;8.67;8.67;;;;;;;;6290016;22;45261;-95
2023/05/31 17:05:27;;;;;;;;;8.67;8.67;;;;;;;;6287506;22;45152;-96
2023/05/31 17:07:52;;;;;;;;;6.67;6.67;;;;;;;;6249492;22;176074;-95
2023/05/31 17:10:17;;;;;;;;;10.33;10.33;;;;;;;;6280956;22;45470;-95
2023/05/31 17:12:42;;;;;;;;;7.33;7.33;;;;;;;;6254180;22;46925;-94
2023/05/31 17:15:08;;;;;;;;;6.67;6.67;;;;;;;;6258777;22;45168;-94
2023/05/31 17:17:34;;;;;;;;;6.67;5.33;;;;;;;;6256698;22;45867;-96
2023/05/31 17:22:37;;;;;;;;;10.00;10.00;;;;;;;;6302056;22;46338;-96
2023/05/31 17:25:05;;;;;;;;;8.33;8.33;;;;;;;;6314179;22;84680;-96
2023/05/31 17:27:41;;;;;;;;;;;;;;;;;;;;;
2023/05/31 17:31:05;;;;;;;;;12.33;8.33;;;;;;;;6310121;22;64918;-96
2023/05/31 17:33:26;;;;;;;;;9.00;8.33;;;;;;;;6287680;22;46486;-96
2023/05/31 17:39:00;;;;;;;;;7.33;7.33;;;;;;;;6295226;22;45652;-96
2023/05/31 17:41:25;;;;;;;;;8.33;8.33;;;;;;;;6319296;22;45422;-95
2023/05/31 17:43:54;;;;;;;;;7.67;7.00;;;;;;;;6321522;22;45855;-96
2023/05/31 17:46:19;;;;;;;;;9.00;9.00;;;;;;;;6315527;22;45382;-95
2023/05/31 17:48:51;;;;;;;;;6.33;6.33;;;;;;;;6309823;22;45239;-96
2023/05/31 17:51:19;;;;;;;;;8.50;7.50;;;;;;;;5981898;22;7083171;-96
2023/05/31 17:53:45;;;;;;;;;8.50;8.50;;;;;;;;5562619;22;5083958;-95
2023/05/31 17:56:11;;;;;;;;;7.25;7.25;;;;;;;;6311498;22;45297;-96
2023/05/31 17:58:39;;;;;;;;;9.33;9.33;;;;;;;;6289661;22;45538;-95
2023/05/31 18:01:04;;;;;;;;;8.33;8.33;;;;;;;;6290373;22;47409;-95
2023/05/31 18:03:33;;;;;;;;;8.67;8.67;;;;;;;;6324315;22;44589;-94
2023/05/31 18:05:58;;;;;;;;;7.67;7.67;;;;;;;;5831349;22;4708917;-96
2023/05/31 18:08:25;;;;;;;;;8.00;8.00;;;;;;;;6282424;22;55623;-96
2023/05/31 18:10:53;;;;;;;;;8.33;8.33;;;;;;;;6283710;22;47917;-96
2023/05/31 18:13:18;;;;;;;;;8.33;8.33;;;;;;;;6283094;22;45442;-96
2023/05/31 18:15:43;;;;;;;;;8.67;8.67;;;;;;;;6311002;22;45882;-96
2023/05/31 18:18:12;;;;;;;;;9.00;8.67;;;;;;;;6284358;22;45402;-94
2023/05/31 18:20:37;;;;;;;;;11.67;11.67;;;;;;;;6309458;22;45224;-95
2023/05/31 18:23:25;;;;;;;;;9.33;8.00;;;;;;;;6310687;22;45218;-96
2023/05/31 18:25:50;;;;;;;;;7.33;7.33;;;;;;;;6283145;22;45328;-96
2023/05/31 18:28:17;;;;;;;;;9.33;9.33;;;;;;;;6284678;22;44771;-94
2023/05/31 18:30:44;;;;;;;;;8.67;8.67;;;;;;;;6311680;22;46289;-95
2023/05/31 18:33:14;;;;;;;;;12.67;11.00;;;;;;;;6311344;22;45345;-96
2023/05/31 18:35:40;;;;;;;;;9.33;9.33;;;;;;;;6285937;22;45240;-96
2023/05/31 18:38:06;;;;;;;;;8.67;8.67;;;;;;;;6290648;22;45749;-95
2023/05/31 18:40:31;;;;;;;;;8.00;8.00;;;;;;;;6285376;22;47224;-95
2023/05/31 18:42:59;;;;;;;;;8.67;8.67;;;;;;;;6282954;22;45643;-96
2023/05/31 18:45:27;;;;;;;;;9.33;9.33;;;;;;;;6284974;22;45449;-96
2023/05/31 18:48:06;;;;;;;;;9.00;9.00;;;;;;;;6283936;22;45505;-96
2023/05/31 18:50:49;;;;;;;;;8.33;8.33;;;;;;;;6290734;22;47092;-96
2023/05/31 18:53:17;;;;;;;;;7.33;7.33;;;;;;;;6312481;22;45186;-96
2023/05/31 18:58:43;;;;;;;;;8.67;8.67;;;;;;;;6286251;22;45856;-96
2023/05/31 19:01:22;;;;;;;;;;;;;;;;;;;;;
2023/05/31 19:03:53;;;;;;;;;8.33;8.33;;;;;;;;6298148;22;57019;-96
2023/05/31 19:06:18;;;;;;;;;8.67;8.67;;;;;;;;6288175;22;45326;-96
2023/05/31 19:08:44;;;;;;;;;7.67;7.67;;;;;;;;6286054;22;45255;-96
2023/05/31 19:11:12;;;;;;;;;11.33;11.33;;;;;;;;6290612;22;47664;-96
2023/05/31 19:13:37;;;;;;;;;6.00;6.00;;;;;;;;6314286;22;45640;-96
2023/05/31 19:16:19;;;;;;;;;8.33;8.33;;;;;;;;6290319;22;45330;-96
2023/05/31 19:31:52;;;;;;;;;9.00;8.33;;;;;;;;6315328;22;45342;-92
